Time;durP1;ratioP1;P1;durP2;ratioP2;P2;SDS_P1;SDS_P2;PMS_P1;PMS_P2;Temp;Humidity;BMP_temperature;BMP_pressure;BME280_temperature;BME280_humidity;BME280_pressure;Samples;Min_cycle;Max_cycle;Signal;HPM_P1;HPM_P2
2022/05/07 00:02:02;;;;;;;;;;;;;;;;;;5120430;27;19907;-74
2022/05/07 00:04:28;;;;;;;;;;;;;;;;;;5095671;28;20002;-76
2022/05/07 00:06:54;;;;;;;;;;;;;;;;;;5113456;28;19955;-74
2022/05/07 00:09:20;;;;;;;;;;;;;;;;;;5095775;28;19915;-75
2022/05/07 00:11:47;;;;;;;;;;;;;;;;;;5106406;27;19926;-74
2022/05/07 00:14:13;;;;;;;;;;;;;;;;;;5134377;27;19965;-75
2022/05/07 00:19:24;;;;;;;;;;;;;;;;;;5134401;27;19918;-75
2022/05/07 00:21:49;;;;;;;;;;;;;;;;;;5128151;27;20279;-74
2022/05/07 00:24:15;;;;;;;;;;;;;;;;;;5093404;28;19912;-75
2022/05/07 00:26:41;;;;;;;;;;;;;;;;;;5093042;28;19912;-75
2022/05/07 00:29:07;;;;;;;;;;;;;;;;;;5092695;28;20380;-75
2022/05/07 00:31:33;;;;;;;;;;;;;;;;;;5093288;28;19908;-75
2022/05/07 00:33:59;;;;;;;;;;;;;;;;;;5092706;28;20378;-75
2022/05/07 00:36:25;;;;;;;;;;;;;;;;;;5093244;28;19908;-75
2022/05/07 00:38:52;;;;;;;;;;;;;;;;;;5074443;28;20006;-75
2022/05/07 00:41:17;;;;;;;;;;;;;;;;;;5093276;28;19998;-75
2022/05/07 00:43:43;;;;;;;;;;;;;;;;;;5093102;28;19997;-75
2022/05/07 00:46:09;;;;;;;;;;;;;;;;;;5081763;28;20245;-75
2022/05/07 00:48:35;;;;;;;;;;;;;;;;;;5110869;28;19919;-74
2022/05/07 00:53:46;;;;;;;;;;;;;;;;;;5092625;28;19962;-75
2022/05/07 00:56:12;;;;;;;;;;;;;;;;;;5092278;28;19912;-75
2022/05/07 00:58:38;;;;;;;;;;;;;;;;;;5109257;28;19916;-75
2022/05/07 01:01:04;;;;;;;;;;;;;;;;;;5113050;28;19908;-74
2022/05/07 01:03:30;;;;;;;;;;;;;;;;;;5113434;28;19912;-75
2022/05/07 01:05:56;;;;;;;;;;;;;;;;;;5112652;28;20264;-75
2022/05/07 01:08:21;;;;;;;;;;;;;;;;;;5095154;28;19968;-74
2022/05/07 01:10:47;;;;;;;;;;;;;;;;;;5114535;28;19908;-75
2022/05/07 01:13:13;;;;;;;;;;;;;;;;;;5115822;28;19912;-75
2022/05/07 01:15:39;;;;;;;;;;;;;;;;;;5117044;28;19915;-74
2022/05/07 01:18:05;;;;;;;;;;;;;;;;;;5114243;27;19911;-74
2022/05/07 01:20:31;;;;;;;;;;;;;;;;;;5106095;28;19912;-75
2022/05/07 01:22:57;;;;;;;;;;;;;;;;;;5118709;27;20271;-74
2022/05/07 01:25:23;;;;;;;;;;;;;;;;;;5099602;28;19914;-74
2022/05/07 01:27:49;;;;;;;;;;;;;;;;;;5116701;28;19915;-74
2022/05/07 01:30:14;;;;;;;;;;;;;;;;;;5115771;28;19916;-74
2022/05/07 01:32:40;;;;;;;;;;;;;;;;;;5116609;28;20000;-75
2022/05/07 01:35:06;;;;;;;;;;;;;;;;;;5097506;28;20014;-74
2022/05/07 01:37:32;;;;;;;;;;;;;;;;;;5116592;28;19908;-75
2022/05/07 01:39:58;;;;;;;;;;;;;;;;;;5115456;28;20003;-75
2022/05/07 01:42:24;;;;;;;;;;;;;;;;;;5116542;28;19908;-75
2022/05/07 01:44:50;;;;;;;;;;;;;;;;;;5116123;28;20355;-74
2022/05/07 01:50:00;;;;;;;;;;;;;;;;;;5114986;28;19926;-74
2022/05/07 01:52:26;;;;;;;;;;;;;;;;;;5116312;28;19916;-75
2022/05/07 01:54:52;;;;;;;;;;;;;;;;;;5116300;28;20305;-75
2022/05/07 01:57:18;;;;;;;;;;;;;;;;;;5115711;28;19915;-75
2022/05/07 01:59:44;;;;;;;;;;;;;;;;;;5115900;28;19908;-74
2022/05/07 02:02:10;;;;;;;;;;;;;;;;;;5096933;28;19953;-74
2022/05/07 02:04:36;;;;;;;;;;;;;;;;;;5115997;28;19908;-75
2022/05/07 02:07:01;;;;;;;;;;;;;;;;;;5096881;28;20408;-75
2022/05/07 02:09:27;;;;;;;;;;;;;;;;;;5115956;28;19923;-74
2022/05/07 02:11:53;;;;;;;;;;;;;;;;;;5115879;28;19943;-75
2022/05/07 02:14:19;;;;;;;;;;;;;;;;;;5114944;28;20279;-75
2022/05/07 02:16:45;;;;;;;;;;;;;;;;;;5115753;28;19915;-76
2022/05/07 02:19:11;;;;;;;;;;;;;;;;;;5115173;28;19918;-74
2022/05/07 02:21:37;;;;;;;;;;;;;;;;;;5097156;28;20014;-75
2022/05/07 02:24:03;;;;;;;;;;;;;;;;;;5096586;28;19960;-74
2022/05/07 02:26:29;;;;;;;;;;;;;;;;;;5115343;28;19908;-75
2022/05/07 02:28:54;;;;;;;;;;;;;;;;;;5115442;28;20356;-74
2022/05/07 02:31:20;;;;;;;;;;;;;;;;;;5096747;28;19994;-74
2022/05/07 02:33:46;;;;;;;;;;;;;;;;;;5115491;28;19912;-74
2022/05/07 02:36:12;;;;;;;;;;;;;;;;;;5096323;28;19914;-74
2022/05/07 02:38:39;;;;;;;;;;;;;;;;;;5115485;28;19954;-75
2022/05/07 02:43:49;;;;;;;;;;;11.00;94.30;;;;;;5115100;28;20386;-75
2022/05/07 02:46:15;;;;;;;;;;;;;;;;;;5114226;28;19947;-74
2022/05/07 02:48:44;;;;;;;;;;;;;;;;;;5114981;28;20057;-74
2022/05/07 02:51:10;;;;;;;;;;;;;;;;;;5114371;28;19911;-74
2022/05/07 02:53:36;;;;;;;;;;;;;;;;;;5115092;28;19915;-75
2022/05/07 02:56:02;;;;;;;;;;;;;;;;;;5114233;28;20435;-74
2022/05/07 02:58:27;;;;;;;;;;;;;;;;;;5114935;28;19907;-75
2022/05/07 03:00:53;;;;;;;;;;;10.90;95.20;;;;;;5114934;28;20291;-75
2022/05/07 03:03:19;;;;;;;;;;;;;;;;;;5113878;28;20008;-74
2022/05/07 03:05:45;;;;;;;;;;;;;;;;;;5114843;28;19915;-75
2022/05/07 03:08:11;;;;;;;;;;;;;;;;;;5113926;28;20452;-75
2022/05/07 03:10:36;;;;;;;;;;;;;;;;;;5096606;28;19912;-75
2022/05/07 03:13:02;;;;;;;;;;;;;;;;;;5113907;28;19914;-75
2022/05/07 03:15:28;;;;;;;;;;;;;;;;;;5114509;28;20010;-75
2022/05/07 03:17:54;;;;;;;;;;;;;;;;;;5095932;28;19982;-75
2022/05/07 03:20:20;;;;;;;;;;;;;;;;;;5095446;28;19908;-75
2022/05/07 03:22:46;;;;;;;;;;;;;;;;;;5096185;28;20310;-75
2022/05/07 03:25:12;;;;;;;;;;;;;;;;;;5095431;28;19908;-75
2022/05/07 03:27:38;;;;;;;;;;;;;;;;;;5114431;28;20440;-75
2022/05/07 03:30:04;;;;;;;;;;;;;;;;;;5095261;28;19919;-75
2022/05/07 03:32:30;;;;;;;;;;;;;;;;;;5113350;28;19915;-75
2022/05/07 03:34:59;;;;;;;;;;;;;;;;;;5113523;27;19908;-75
2022/05/07 03:37:25;;;;;;;;;;;;;;;;;;5113853;28;20425;-75
2022/05/07 03:39:50;;;;;;;;;;;;;;;;;;5114198;28;19912;-75
2022/05/07 03:42:16;;;;;;;;;;;;;;;;;;5097692;27;19911;-75
2022/05/07 03:44:42;;;;;;;;;;;;;;;;;;5134698;27;19914;-75
2022/05/07 03:47:08;;;;;;;;;;;;;;;;;;5115418;27;20003;-75
2022/05/07 03:49:34;;;;;;;;;;;;;;;;;;5134566;27;19919;-75
2022/05/07 03:54:45;;;;;;;;;;;;;;;;;;5134256;27;20274;-75
2022/05/07 03:57:13;;;;;;;;;;;;;;;;;;5133658;27;19907;-75
2022/05/07 03:59:39;;;;;;;;;;;10.80;96.80;;;;;;5134102;27;20378;-75
2022/05/07 04:02:04;;;;;;;;;;;10.70;98.30;;;;;;5129008;27;19904;-75
2022/05/07 04:04:30;;;;;;;;;;;10.60;99.10;;;;;;5134444;27;19949;-75
2022/05/07 04:06:56;;;;;;;;;;;;;;;;;;5134382;27;19903;-75
2022/05/07 04:09:22;;;;;;;;;;;;;;;;;;5133990;27;19911;-75
2022/05/07 04:11:47;;;;;;;;;;;;;;;;;;5134623;27;19957;-75
2022/05/07 04:14:13;;;;;;;;;;;;;;;;;;5133992;27;19903;-75
2022/05/07 04:16:39;;;;;;;;;;;11.10;97.10;;;;;;5134529;27;19907;-75
2022/05/07 04:19:04;;;;;;;;;;;11.30;98.70;;;;;;5133496;27;19914;-75
2022/05/07 04:21:32;;;;;;;;;;;;;;;;;;5134471;27;19911;-75
2022/05/07 04:23:58;;;;;;;;;;;;;;;;;;5134428;27;19910;-75
2022/05/07 04:26:24;;;;;;;;;;;;;;;;;;5095044;28;19904;-75
2022/05/07 04:28:50;;;;;;;;;;;10.80;98.30;;;;;;5113772;28;20044;-75
2022/05/07 04:31:18;;;;;;;;;;;;;;;;;;5113176;28;19910;-75
2022/05/07 04:33:44;;;;;;;;;;;;;;;;;;5095537;28;19907;-75
2022/05/07 04:36:10;;;;;;;;;;;10.90;98.70;;;;;;5113370;28;19910;-75
2022/05/07 04:38:36;;;;;;;;;;;;;;;;;;5113719;28;19908;-75
2022/05/07 04:41:02;;;;;;;;;;;;;;;;;;5113323;28;20399;-75
2022/05/07 04:43:27;;;;;;;;;;;;;;;;;;5092781;28;19911;-75
2022/05/07 04:45:53;;;;;;;;;;;11.10;98.10;;;;;;5113150;28;19908;-75
2022/05/07 04:48:19;;;;;;;;;;;;;;;;;;5112405;28;19916;-75
2022/05/07 04:50:45;;;;;;;;;;;;;;;;;;5113662;28;19919;-75
2022/05/07 04:53:11;;;;;;;;;;;;;;;;;;5112857;28;19982;-75
2022/05/07 04:55:36;;;;;;;;;;;;;;;;;;5096315;28;20344;-75
2022/05/07 04:58:02;;;;;;;;;;;;;;;;;;5092826;28;19904;-75
2022/05/07 05:00:28;;;;;;;;;;;;;;;;;;5093094;28;20237;-75
2022/05/07 05:02:54;;;;;;;;;;;;;;;;;;5092834;28;19904;-75
2022/05/07 05:05:20;;;;;;;;;;;;;;;;;;5092417;28;19904;-75
2022/05/07 05:07:46;;;;;;;;;;;;;;;;;;5092799;28;19992;-74
2022/05/07 05:10:12;;;;;;;;;;;;;;;;;;5074308;28;19908;-74
2022/05/07 05:12:38;;;;;;;;;;;;;;;;;;5092973;28;19931;-74
2022/05/07 05:15:04;;;;;;;;;;;;;;;;;;5092526;28;20347;-75
2022/05/07 05:17:30;;;;;;;;;;;;;;;;;;5074779;28;19911;-75
2022/05/07 05:19:56;;;;;;;;;;;;;;;;;;5074400;28;20317;-75
2022/05/07 05:22:22;;;;;;;;;;;;;;;;;;5084946;28;19912;-75
2022/05/07 05:24:48;;;;;;;;;;;;;;;;;;5092830;28;19904;-75
2022/05/07 05:27:14;;;;;;;;;;;;;;;;;;5092212;28;19904;-75
2022/05/07 05:29:41;;;;;;;;;;;;;;;;;;5092767;28;19912;-75
2022/05/07 05:32:06;;;;;;;;;;;;;;;;;;5092285;28;19947;-75
2022/05/07 05:34:32;;;;;;;;;;;;;;;;;;5092805;28;20237;-75
2022/05/07 05:36:58;;;;;;;;;;;;;;;;;;5091510;28;19908;-74
2022/05/07 05:39:24;;;;;;;;;;;;;;;;;;5092033;28;20336;-75
2022/05/07 05:41:50;;;;;;;;;;;;;;;;;;5092657;28;19904;-74
2022/05/07 05:44:16;;;;;;;;;;;;;;;;;;5090777;28;19911;-75
2022/05/07 05:46:42;;;;;;;;;;;;;;;;;;5091351;28;19927;-75
2022/05/07 05:49:08;;;;;;;;;;;12.30;94.20;;;;;;5087532;28;20277;-75
2022/05/07 05:51:34;;;;;;;;;;;;;;;;;;5110102;28;19961;-74
2022/05/07 05:53:59;;;;;;;;;;;;;;;;;;5112893;28;19911;-75
2022/05/07 05:56:25;;;;;;;;;;;;;;;;;;5112695;28;20153;-75
2022/05/07 05:58:51;;;;;;;;;;;;;;;;;;5109578;28;19968;-75
2022/05/07 06:01:17;;;;;;;;;;;;;;;;;;5097591;28;19957;-75
2022/05/07 06:03:43;;;;;;;;;;;;;;;;;;5113066;28;20358;-75
2022/05/07 06:06:09;;;;;;;;;;;;;;;;;;5095470;28;19995;-75
2022/05/07 06:08:35;;;;;;;;;;;;;;;;;;5111731;28;20259;-75
2022/05/07 06:11:02;;;;;;;;;;;;;;;;;;5111120;28;20003;-75
2022/05/07 06:13:27;;;;;;;;;;;14.00;69.00;;;;;;5097026;28;19947;-74
2022/05/07 06:15:54;;;;;;;;;;;;;;;;;;5116271;28;19950;-74
2022/05/07 06:18:20;;;;;;;;;;;;;;;;;;5092308;28;20316;-74
2022/05/07 06:20:47;;;;;;;;;;;;;;;;;;5106359;28;19995;-75
2022/05/07 06:23:13;;;;;;;;;;;;;;;;;;5088250;28;20271;-74
2022/05/07 06:28:23;;;;;;;;;;;;;;;;;;5107593;28;19914;-75
2022/05/07 06:30:49;;;;;;;;;;;;;;;;;;5106904;28;19909;-75
2022/05/07 06:33:15;;;;;;;;;;;;;;;;;;5111897;28;19908;-74
2022/05/07 06:35:40;;;;;;;;;;;;;;;;;;5090768;28;19908;-74
2022/05/07 06:38:09;;;;;;;;;;;;;;;;;;5095432;28;19911;-75
2022/05/07 06:40:38;;;;;;;;;;;;;;;;;;5095381;28;19912;-74
2022/05/07 06:43:04;;;;;;;;;;;;;;;;;;5095361;28;19908;-75
2022/05/07 06:45:30;;;;;;;;;;;;;;;;;;5094435;28;20350;-75
2022/05/07 06:47:56;;;;;;;;;;;;;;;;;;5095005;28;19950;-75
2022/05/07 06:50:21;;;;;;;;;;;;;;;;;;5094546;28;19922;-75
2022/05/07 06:52:48;;;;;;;;;;;;;;;;;;5111254;28;19918;-75
2022/05/07 06:55:14;;;;;;;;;;;;;;;;;;5114959;28;19903;-75
2022/05/07 06:57:40;;;;;;;;;;;;;;;;;;5115458;28;20336;-77
2022/05/07 07:00:05;;;;;;;;;;;;;;;;;;5115452;28;19910;-76
2022/05/07 07:02:31;;;;;;;;;;;;;;;;;;5114594;28;20240;-76
2022/05/07 07:05:00;;;;;;;;;;;;;;;;;;5115055;28;19943;-75
2022/05/07 07:07:26;;;;;;;;;;;;;;;;;;5096491;28;20256;-76
2022/05/07 07:09:52;;;;;;;;;;;;;;;;;;5096215;28;19916;-75
2022/05/07 07:12:20;;;;;;;;;;;;;;;;;;5083133;28;20399;-76
2022/05/07 07:14:45;;;;;;;;;;;;;;;;;;5094839;28;20343;-76
2022/05/07 07:17:11;;;;;;;;;;;;;;;;;;5109956;28;19911;-75
2022/05/07 07:19:40;;;;;;;;;;;;;;;;;;5094795;28;19995;-76
2022/05/07 07:22:07;;;;;;;;;;;;;;;;;;5094309;28;20356;-77
2022/05/07 07:24:32;;;;;;;;;;;16.60;26.90;;;;;;5101975;28;20347;-77
2022/05/07 07:26:58;;;;;;;;;;;;;;;;;;5114558;28;19911;-79
2022/05/07 07:29:24;;;;;;;;;;;;;;;;;;5095091;28;19915;-77
2022/05/07 07:31:50;;;;;;;;;;;;;;;;;;5111333;28;19999;-76
2022/05/07 07:34:16;;;;;;;;;;;;;;;;;;5100474;28;19907;-75
2022/05/07 07:36:44;;;;;;;;;;;;;;;;;;5114468;28;19911;-75
2022/05/07 07:39:10;;;;;;;;;;;;;;;;;;5111390;28;19908;-75
2022/05/07 07:41:36;;;;;;;;;;;;;;;;;;5102667;28;19904;-74
2022/05/07 07:44:01;;;;;;;;;;;;;;;;;;5111452;28;19990;-74
2022/05/07 07:49:12;;;;;;;;;;;;;;;;;;5093764;28;20061;-74
2022/05/07 07:51:38;;;;;;;;;;;;;;;;;;5074669;28;20364;-73
2022/05/07 07:54:04;;;;;;;;;;;;;;;;;;5093782;28;19912;-70
2022/05/07 07:56:30;;;;;;;;;;;;;;;;;;5092859;28;20267;-71
2022/05/07 07:58:55;;;;;;;;;;;;;;;;;;5093791;28;19914;-73
2022/05/07 08:01:21;;;;;;;;;;;;;;;;;;5074959;28;19915;-74
2022/05/07 08:03:47;;;;;;;;;;;;;;;;;;5093839;28;19919;-71
2022/05/07 08:06:13;;;;;;;;;;;;;;;;;;5097772;28;19915;-74
2022/05/07 08:11:44;;;;;;;;;;;;;;;;;;5093271;28;20008;-74
2022/05/07 08:14:10;;;;;;;;;;;;;;;;;;5095528;28;20001;-75
2022/05/07 08:16:36;;;;;;;;;;;;;;;;;;5093257;28;19908;-75
2022/05/07 08:19:03;;;;;;;;;;;;;;;;;;5108868;28;19912;-79
2022/05/07 08:21:29;;;;;;;;;;;;;;;;;;5108468;28;19912;-79
2022/05/07 08:23:54;;;;;;;;;;;;;;;;;;5093559;28;19908;-80
2022/05/07 08:26:20;;;;;;;;;;;;;;;;;;5096896;28;19916;-75
2022/05/07 08:28:46;;;;;;;;;;;;;;;;;;5098149;28;19973;-78
2022/05/07 08:31:12;;;;;;;;;;;;;;;;;;5113422;28;19947;-76
2022/05/07 08:33:40;;;;;;;;;;;;;;;;;;5111902;28;19903;-76
2022/05/07 08:36:08;;;;;;;;;;;;;;;;;;5083378;28;20399;-76
2022/05/07 08:38:34;;;;;;;;;;;;;;;;;;5092472;28;19912;-73
2022/05/07 08:41:00;;;;;;;;;;;;;;;;;;5093240;28;19962;-75
2022/05/07 08:43:26;;;;;;;;;;;;;;;;;;5103886;28;19991;-76
2022/05/07 08:45:52;;;;;;;;;;;;;;;;;;5103654;28;19916;-76
2022/05/07 08:48:18;;;;;;;;;;;;;;;;;;5098910;28;19920;-76
2022/05/07 08:50:44;;;;;;;;;;;;;;;;;;5100139;28;20030;-76
2022/05/07 08:53:10;;;;;;;;;;;;;;;;;;5105802;28;20317;-76
2022/05/07 08:55:36;;;;;;;;;;;;;;;;;;5086103;28;19912;-76
2022/05/07 08:58:02;;;;;;;;;;;;;;;;;;5101131;28;19953;-76
2022/05/07 09:00:29;;;;;;;;;;;;;;;;;;5101100;28;19914;-76
2022/05/07 09:02:55;;;;;;;;;;;;;;;;;;5102934;28;19923;-76
2022/05/07 09:05:21;;;;;;;;;;;;;;;;;;5100247;28;19908;-76
2022/05/07 09:07:46;;;;;;;;;;;;;;;;;;5102248;28;19912;-76
2022/05/07 09:10:12;;;;;;;;;;;;;;;;;;5106129;28;19947;-75
2022/05/07 09:12:38;;;;;;;;;;;;;;;;;;5105692;28;20381;-76
2022/05/07 09:15:04;;;;;;;;;;;;;;;;;;5101617;28;19912;-76
2022/05/07 09:17:30;;;;;;;;;;;;;;;;;;5100360;28;19981;-76
2022/05/07 09:19:56;;;;;;;;;;;;;;;;;;5102836;28;19947;-75
2022/05/07 09:22:22;;;;;;;;;;;;;;;;;;5100521;28;19916;-76
2022/05/07 09:24:48;;;;;;;;;;;;;;;;;;5101251;28;19941;-76
2022/05/07 09:27:14;;;;;;;;;;;;;;;;;;5085209;28;20284;-76
2022/05/07 09:29:39;;;;;;;;;;;;;;;;;;5102722;28;20014;-76
2022/05/07 09:32:05;;;;;;;;;;;;;;;;;;5076755;28;19954;-76
2022/05/07 09:37:19;;;;;;;;;;;;;;;;;;5135073;27;19962;-75
2022/05/07 09:39:45;;;;;;;;;;;;;;;;;;5126037;27;19912;-75
2022/05/07 09:42:10;;;;;;;;;;;18.80;1.00;;;;;;5112240;28;20003;-75
2022/05/07 09:44:36;;;;;;;;;;;;;;;;;;5111642;28;20174;-75
2022/05/07 09:47:02;;;;;;;;;;;;;;;;;;5096277;28;19908;-75
2022/05/07 09:49:28;;;;;;;;;;;;;;;;;;5095419;28;20383;-76
2022/05/07 09:51:55;;;;;;;;;;;;;;;;;;5096297;28;20352;-76
2022/05/07 09:59:51;;;;;;;;;;;19.30;1.30;;;;;;5096380;28;19961;-76
2022/05/07 10:02:17;;;;;;;;;;;;;;;;;;5096162;28;19908;-75
2022/05/07 10:04:43;;;;;;;;;;;;;;;;;;5111823;28;20378;-76
2022/05/07 10:07:09;;;;;;;;;;;;;;;;;;5111958;28;19908;-75
2022/05/07 10:09:35;;;;;;;;;;;;;;;;;;5095352;28;19923;-75
2022/05/07 10:12:01;;;;;;;;;;;;;;;;;;5111705;28;19957;-75
2022/05/07 10:14:27;;;;;;;;;;;;;;;;;;5095298;28;20245;-75
2022/05/07 10:16:52;;;;;;;;;;;;;;;;;;5111540;28;19915;-75
2022/05/07 10:19:18;;;;;;;;;;;;;;;;;;5095511;28;19997;-75
2022/05/07 10:21:44;;;;;;;;;;;;;;;;;;5096024;28;19912;-75
2022/05/07 10:24:18;;;;;;;;;;;20.20;1.00;;;;;;5095680;28;19908;-75
2022/05/07 10:26:44;;;;;;;;;;;;;;;;;;5095524;28;19912;-76
2022/05/07 10:29:10;;;;;;;;;;;;;;;;;;5095553;28;19916;-75
2022/05/07 10:31:36;;;;;;;;;;;;;;;;;;5110718;28;19951;-75
2022/05/07 10:34:03;;;;;;;;;;;;;;;;;;5095382;28;20384;-75
2022/05/07 10:36:35;;;;;;;;;;;20.90;1.00;;;;;;5094767;28;19908;-75
2022/05/07 10:39:01;;;;;;;;;;;;;;;;;;5095207;28;19958;-75
2022/05/07 10:41:28;;;;;;;;;;;;;;;;;;5094816;28;19947;-76
2022/05/07 10:43:56;;;;;;;;;;;21.40;1.00;;;;;;5094564;28;20393;-75
2022/05/07 10:46:22;;;;;;;;;;;;;;;;;;5094654;28;20057;-75
2022/05/07 10:48:48;;;;;;;;;;;;;;;;;;5094772;28;20011;-75
2022/05/07 10:51:14;;;;;;;;;;;;;;;;;;5095237;28;20320;-75
2022/05/07 10:53:40;;;;;;;;;;;;;;;;;;5094920;28;19908;-75
2022/05/07 10:56:10;;;;;;;;;;;21.40;1.00;;;;;;5110527;28;20265;-76
2022/05/07 10:58:36;;;;;;;;;;;21.40;1.00;;;;;;5094892;28;19912;-75
2022/05/07 11:01:03;;;;;;;;;;;;;;;;;;5095049;28;20268;-75
2022/05/07 11:03:29;;;;;;;;;;;;;;;;;;5094393;28;20022;-75
2022/05/07 11:05:55;;;;;;;;;;;;;;;;;;5094895;28;19908;-75
2022/05/07 11:08:21;;;;;;;;;;;;;;;;;;5095241;28;19915;-75
2022/05/07 11:10:47;;;;;;;;;;;20.80;1.00;;;;;;5110768;28;19919;-75
2022/05/07 11:13:13;;;;;;;;;;;21.60;1.00;;;;;;5094482;28;19908;-75
2022/05/07 11:15:39;;;;;;;;;;;;;;;;;;5094069;28;19908;-75
2022/05/07 11:18:05;;;;;;;;;;;;;;;;;;5110235;28;20383;-75
2022/05/07 11:20:31;;;;;;;;;;;;;;;;;;5109815;28;19920;-74
2022/05/07 11:22:57;;;;;;;;;;;;;;;;;;5094603;28;20391;-75
2022/05/07 11:25:23;;;;;;;;;;;;;;;;;;5093824;28;20006;-74
2022/05/07 11:27:51;;;;;;;;;;;22.70;1.00;;;;;;5110208;28;19908;-75
2022/05/07 11:30:17;;;;;;;;;;;22.20;1.00;;;;;;5094447;28;20367;-75
2022/05/07 11:32:42;;;;;;;;;;;;;;;;;;5105687;28;20154;-75
2022/05/07 11:35:08;;;;;;;;;;;;;;;;;;5092063;28;20379;-75
2022/05/07 11:37:34;;;;;;;;;;;;;;;;;;5093452;28;19909;-75
2022/05/07 11:40:00;;;;;;;;;;;;;;;;;;5094523;28;19912;-75
2022/05/07 11:42:26;;;;;;;;;;;;;;;;;;5109319;28;19958;-74
2022/05/07 11:47:36;;;;;;;;;;;;;;;;;;5093351;28;19914;-74
2022/05/07 11:50:04;;;;;;;;;;;;;;;;;;5109601;28;19920;-75
2022/05/07 11:52:30;;;;;;;;;;;23.00;1.00;;;;;;5093447;28;19920;-74
2022/05/07 11:54:56;;;;;;;;;;;;;;;;;;5093386;28;20318;-74
2022/05/07 11:57:22;;;;;;;;;;;;;;;;;;5093955;28;19908;-74
2022/05/07 11:59:48;;;;;;;;;;;;;;;;;;5093223;28;20348;-75
2022/05/07 12:02:14;;;;;;;;;;;;;;;;;;5093853;28;19912;-74
2022/05/07 12:04:40;;;;;;;;;;;;;;;;;;5093255;28;20364;-75
2022/05/07 12:07:06;;;;;;;;;;;;;;;;;;5093775;28;19908;-74
2022/05/07 12:09:33;;;;;;;;;;;;;;;;;;5092917;28;20283;-74
2022/05/07 12:11:59;;;;;;;;;;;21.70;1.00;;;;;;5093667;28;19912;-74
2022/05/07 12:14:25;;;;;;;;;;;;;;;;;;5093898;28;20439;-74
2022/05/07 12:19:35;;;;;;;;;;;;;;;;;;5093099;28;19951;-74
2022/05/07 12:30:15;;;;;;;;;;;;;;;;;;5093067;28;20288;-74
2022/05/07 12:32:43;;;;;;;;;;;;;;;;;;5092743;28;19908;-74
2022/05/07 12:35:09;;;;;;;;;;;;;;;;;;5093263;28;19931;-74
2022/05/07 12:37:37;;;;;;;;;;;;;;;;;;5092572;28;20352;-74
2022/05/07 12:40:02;;;;;;;;;;;;;;;;;;5093261;28;19953;-74
2022/05/07 12:42:29;;;;;;;;;;;;;;;;;;5092659;28;19999;-74
2022/05/07 12:44:55;;;;;;;;;;;;;;;;;;5093011;28;20399;-74
2022/05/07 12:47:21;;;;;;;;;;;;;;;;;;5093166;28;19908;-74
2022/05/07 12:49:47;;;;;;;;;;;;;;;;;;5107809;28;19920;-74
2022/05/07 12:52:13;;;;;;;;;;;22.90;1.00;;;;;;5093253;28;19912;-74
2022/05/07 12:54:39;;;;;;;;;;;;;;;;;;5092605;28;20260;-74
2022/05/07 12:57:05;;;;;;;;;;;;;;;;;;5093058;28;19908;-74
2022/05/07 12:59:31;;;;;;;;;;;;;;;;;;5108192;28;20428;-73
2022/05/07 13:01:57;;;;;;;;;;;;;;;;;;5092972;28;19972;-74
2022/05/07 13:04:24;;;;;;;;;;;;;;;;;;5093098;28;20356;-74
2022/05/07 13:06:51;;;;;;;;;;;;;;;;;;5096135;28;19912;-74
2022/05/07 13:09:17;;;;;;;;;;;;;;;;;;5097135;28;19974;-74
2022/05/07 13:11:43;;;;;;;;;;;;;;;;;;5096549;28;19908;-74
2022/05/07 13:14:09;;;;;;;;;;;;;;;;;;5097098;28;19915;-74
2022/05/07 13:16:35;;;;;;;;;;;;;;;;;;5096399;28;20375;-74
2022/05/07 13:19:01;;;;;;;;;;;;;;;;;;5097068;28;19935;-74
2022/05/07 13:21:27;;;;;;;;;;;;;;;;;;5112442;28;20364;-74
2022/05/07 13:23:52;;;;;;;;;;;;;;;;;;5096045;28;19904;-74
2022/05/07 13:26:18;;;;;;;;;;;;;;;;;;5096314;28;19909;-74
2022/05/07 13:28:44;;;;;;;;;;;;;;;;;;5111983;28;19955;-74
2022/05/07 13:31:10;;;;;;;;;;;;;;;;;;5096800;28;19944;-74
2022/05/07 13:33:37;;;;;;;;;;;;;;;;;;5095891;28;20402;-74
2022/05/07 13:36:03;;;;;;;;;;;;;;;;;;5096673;28;19954;-74
2022/05/07 13:38:28;;;;;;;;;;;;;;;;;;5096620;28;19909;-74
2022/05/07 13:40:54;;;;;;;;;;;;;;;;;;5095906;28;19908;-74
2022/05/07 13:43:20;;;;;;;;;;;;;;;;;;5096567;28;19959;-74
2022/05/07 13:45:47;;;;;;;;;;;;;;;;;;5095957;28;19908;-74
2022/05/07 13:48:13;;;;;;;;;;;;;;;;;;5096098;28;19920;-74
2022/05/07 13:50:39;;;;;;;;;;;;;;;;;;5095738;28;19920;-74
2022/05/07 13:53:06;;;;;;;;;;;;;;;;;;5096305;28;19908;-74
2022/05/07 13:55:32;;;;;;;;;;;;;;;;;;5095895;28;19908;-74
2022/05/07 13:57:58;;;;;;;;;;;;;;;;;;5096274;28;19912;-74
2022/05/07 14:00:24;;;;;;;;;;;;;;;;;;5096148;28;19970;-74
2022/05/07 14:02:50;;;;;;;;;;;;;;;;;;5095563;28;20345;-74
2022/05/07 14:05:15;;;;;;;;;;;;;;;;;;5096053;28;19938;-74
2022/05/07 14:07:41;;;;;;;;;;;;;;;;;;5095473;28;19908;-74
2022/05/07 14:10:07;;;;;;;;;;;;;;;;;;5095997;28;19927;-74
2022/05/07 14:12:33;;;;;;;;;;;;;;;;;;5095375;28;20403;-74
2022/05/07 14:14:59;;;;;;;;;;;;;;;;;;5095959;28;19912;-74
2022/05/07 14:17:25;;;;;;;;;;;;;;;;;;5094944;28;20017;-74
2022/05/07 14:19:52;;;;;;;;;;;;;;;;;;5094755;28;19919;-74
2022/05/07 14:24:50;;;;;;;;;;;;;;;;;;5095127;28;19908;-74
2022/05/07 14:27:16;;;;;;;;;;;;;;;;;;5095614;28;20007;-74
2022/05/07 14:29:42;;;;;;;;;;;;;;;;;;5094905;28;20065;-74
2022/05/07 14:32:10;;;;;;;;;;;;;;;;;;5110968;28;20378;-74
2022/05/07 14:34:36;;;;;;;;;;;;;;;;;;5095010;28;19914;-74
2022/05/07 14:37:01;;;;;;;;;;;;;;;;;;5095508;28;20338;-74
2022/05/07 14:39:28;;;;;;;;;;;;;;;;;;5111313;28;19919;-74
2022/05/07 14:41:54;;;;;;;;;;;;;;;;;;5094841;28;20719;-74
2022/05/07 14:44:20;;;;;;;;;;;;;;;;;;5111348;28;19908;-74
2022/05/07 14:46:46;;;;;;;;;;;;;;;;;;5110568;28;20245;-74
2022/05/07 14:49:12;;;;;;;;;;;;;;;;;;5095173;28;19924;-74
2022/05/07 14:51:38;;;;;;;;;;;;;;;;;;5110067;28;19916;-74
2022/05/07 14:54:04;;;;;;;;;;;;;;;;;;5095197;28;19912;-75
2022/05/07 14:56:33;;;;;;;;;;;;;;;;;;5095112;28;20272;-75
2022/05/07 14:58:59;;;;;;;;;;;;;;;;;;5110172;28;19908;-74
2022/05/07 15:01:25;;;;;;;;;;;;;;;;;;5110814;28;20241;-74
2022/05/07 15:03:51;;;;;;;;;;;;;;;;;;5094268;28;19908;-74
2022/05/07 15:06:17;;;;;;;;;;;;;;;;;;5094783;28;19931;-74
2022/05/07 15:11:27;;;;;;;;;;;;;;;;;;5094441;28;19920;-75
2022/05/07 15:13:53;;;;;;;;;;;;;;;;;;5109752;28;19908;-75
2022/05/07 15:16:19;;;;;;;;;;;;;;;;;;5094645;28;20008;-74
2022/05/07 15:18:45;;;;;;;;;;;;;;;;;;5093671;28;19913;-74
2022/05/07 15:21:12;;;;;;;;;;;;;;;;;;5094849;28;19912;-74
2022/05/07 15:23:38;;;;;;;;;;;;;;;;;;5109544;28;20376;-74
2022/05/07 15:26:04;;;;;;;;;;;;;;;;;;5094357;28;20371;-74
2022/05/07 15:28:30;;;;;;;;;;;;;;;;;;5093764;28;19909;-74
2022/05/07 15:30:56;;;;;;;;;;;;;;;;;;5093424;28;19916;-74
2022/05/07 15:39:09;;;;;;;;;;;;;;;;;;5031109;28;19960;-74
2022/05/07 15:41:34;;;;;;;;;;;;;;;;;;5081422;28;20332;-74
2022/05/07 15:44:00;;;;;;;;;;;;;;;;;;5093454;28;19915;-74
2022/05/07 15:46:26;;;;;;;;;;;;;;;;;;5093971;28;19908;-74
2022/05/07 15:48:52;;;;;;;;;;;;;;;;;;5108585;28;19950;-74
2022/05/07 15:51:18;;;;;;;;;;;;;;;;;;5093840;28;19920;-74
2022/05/07 15:53:44;;;;;;;;;;;;;;;;;;5093207;28;20368;-74
2022/05/07 15:56:10;;;;;;;;;;;;;;;;;;5109499;28;19908;-74
2022/05/07 15:58:36;;;;;;;;;;;;;;;;;;5094132;28;20339;-75
2022/05/07 16:01:02;;;;;;;;;;;;;;;;;;5093040;28;19908;-74
2022/05/07 16:03:28;;;;;;;;;;;;;;;;;;5093660;28;20356;-74
2022/05/07 16:05:54;;;;;;;;;;;;;;;;;;5092927;28;20019;-74
2022/05/07 16:08:20;;;;;;;;;;;;;;;;;;5093732;28;19908;-74
2022/05/07 16:10:45;;;;;;;;;;;23.00;1.00;;;;;;5095678;28;20359;-74
2022/05/07 16:13:12;;;;;;;;;;;;;;;;;;5093869;28;19912;-74
2022/05/07 16:15:38;;;;;;;;;;;;;;;;;;5075235;28;20332;-75
2022/05/07 16:18:04;;;;;;;;;;;;;;;;;;5102978;28;19962;-75
2022/05/07 16:20:32;;;;;;;;;;;;;;;;;;5093258;28;19912;-75
2022/05/07 16:25:42;;;;;;;;;;;;;;;;;;5097845;28;19918;-74
2022/05/07 16:28:09;;;;;;;;;;;;;;;;;;5093332;28;20297;-74
2022/05/07 16:30:35;;;;;;;;;;;;;;;;;;5093134;28;19935;-74
2022/05/07 16:33:01;;;;;;;;;;;;;;;;;;5092616;28;20477;-74
2022/05/07 16:35:27;;;;;;;;;;;;;;;;;;5092929;28;19908;-75
2022/05/07 16:37:53;;;;;;;;;;;;;;;;;;5074510;28;19915;-74
2022/05/07 16:40:19;;;;;;;;;;;;;;;;;;5074736;28;19908;-74
2022/05/07 16:42:45;;;;;;;;;;;;;;;;;;5092839;28;19908;-74
2022/05/07 16:45:11;;;;;;;;;;;;;;;;;;5075696;28;19951;-74
2022/05/07 16:47:37;;;;;;;;;;;;;;;;;;5092926;28;19915;-74
2022/05/07 16:50:04;;;;;;;;;;;;;;;;;;5092126;28;20372;-74
